Time;durP1;ratioP1;P1;durP2;ratioP2;P2;SDS_P1;SDS_P2;PMS_P1;PMS_P2;Temp;Humidity;BMP_temperature;BMP_pressure;BME280_temperature;BME280_humidity;BME280_pressure;Samples;Min_cycle;Max_cycle;Signal;HPM_P1;HPM_P2
2021/12/30 00:00:44;;;;;;;19.77;5.80;;;;;;;9.24;99.94;98284.72;5113525;28;20186;-94
2021/12/30 00:03:11;;;;;;;9.07;4.10;;;;;;;9.40;98.28;98282.88;5113369;28;20188;-95
2021/12/30 00:05:40;;;;;;;7.87;4.40;;;;;;;9.53;97.81;98282.94;5114188;28;20252;-95
2021/12/30 00:08:09;;;;;;;9.70;4.40;;;;;;;9.55;96.43;98287.16;5114345;28;20189;-93
2021/12/30 00:10:36;;;;;;;10.60;4.53;;;;;;;9.63;96.10;98287.50;5114316;28;20180;-94
2021/12/30 00:13:03;;;;;;;9.90;4.50;;;;;;;9.51;96.04;98298.72;5114237;28;20623;-93
2021/12/30 00:15:30;;;;;;;10.03;4.93;;;;;;;9.45;96.97;98295.66;5114058;28;20210;-91
2021/12/30 00:17:57;;;;;;;6.57;2.50;;;;;;;9.19;97.82;98316.41;5113734;28;20242;-92
2021/12/30 00:20:24;;;;;;;9.23;4.40;;;;;;;9.41;97.75;98309.88;5112527;28;20586;-93
2021/12/30 00:22:51;;;;;;;18.67;5.73;;;;;;;9.18;98.60;98314.69;5095827;28;20213;-91
2021/12/30 00:25:18;;;;;;;15.23;5.63;;;;;;;9.22;98.67;98304.91;5113522;28;20179;-93
2021/12/30 00:27:45;;;;;;;8.37;4.13;;;;;;;9.14;98.04;98304.53;5113766;28;20644;-94
2021/12/30 00:30:13;;;;;;;11.17;4.20;;;;;;;9.36;97.45;98317.13;5113561;28;20184;-93
2021/12/30 00:32:41;;;;;;;16.77;5.83;;;;;;;9.46;96.76;98313.03;5112986;28;20679;-94
2021/12/30 00:35:10;;;;;;;9.87;5.80;;;;;;;9.51;96.03;98321.44;5112736;28;20179;-94
2021/12/30 00:37:38;;;;;;;7.97;4.57;;;;;;;9.57;95.33;98313.19;5113726;28;20175;-93
2021/12/30 00:40:10;;;;;;;9.20;4.30;;;;;;;9.41;96.65;98321.16;5112811;28;20185;-94
2021/12/30 00:42:37;;;;;;;16.27;4.63;;;;;;;9.55;95.63;98315.06;5114029;28;20261;-94
2021/12/30 00:45:04;;;;;;;10.07;4.57;;;;;;;9.72;94.43;98310.47;5117027;28;20280;-94
2021/12/30 00:47:31;;;;;;;9.53;3.73;;;;;;;9.70;94.31;98316.75;5097620;28;20201;-94
2021/12/30 00:49:58;;;;;;;12.13;5.30;;;;;;;9.68;94.05;98316.00;5097459;28;20614;-93
2021/12/30 00:52:25;;;;;;;8.37;3.70;;;;;;;9.72;94.14;98314.91;5096360;28;20171;-94
2021/12/30 00:54:53;;;;;;;13.00;5.20;;;;;;;9.82;93.69;98324.69;5097224;28;20176;-94
2021/12/30 00:57:19;;;;;;;7.40;3.07;;;;;;;9.59;94.63;98327.06;5096185;28;20265;-93
2021/12/30 00:59:46;;;;;;;10.30;4.17;;;;;;;9.66;94.13;98323.97;5097144;28;20243;-93
2021/12/30 01:02:13;;;;;;;5.07;2.33;;;;;;;9.82;93.06;98327.31;5079490;28;20210;-92
2021/12/30 01:04:40;;;;;;;7.00;3.97;;;;;;;9.73;93.17;98324.41;5097117;28;20747;-94
2021/12/30 01:07:07;;;;;;;10.70;3.57;;;;;;;9.54;94.70;98321.25;5096158;28;20179;-94
2021/12/30 01:09:34;;;;;;;7.20;3.17;;;;;;;9.43;94.61;98327.16;5079296;28;20280;-92
2021/12/30 01:12:02;;;;;;;6.13;3.87;;;;;;;9.17;97.26;98328.69;5113451;28;20266;-93
2021/12/30 01:14:31;;;;;;;10.23;3.17;;;;;;;9.25;97.58;98326.47;5116396;28;20211;-92
2021/12/30 01:17:11;;;;;;;9.10;3.23;;;;;;;9.30;97.34;98327.97;5116837;28;20673;-94
2021/12/30 01:19:42;;;;;;;8.70;3.13;;;;;;;9.34;96.62;98327.69;5116939;27;20162;-94
2021/12/30 01:22:23;;;;;;;8.33;4.33;;;;;;;9.41;96.47;98342.06;5116213;28;20198;-93
2021/12/30 01:24:51;;;;;;;7.97;3.13;;;;;;;9.51;95.73;98332.72;5117119;28;20177;-94
2021/12/30 01:27:21;;;;;;;7.90;3.07;;;;;;;9.41;95.56;98336.03;5116748;27;20169;-93
2021/12/30 01:29:49;;;;;;;7.87;3.93;;;;;;;9.37;96.13;98337.13;5115613;28;20192;-93
2021/12/30 01:32:15;;;;;;;6.20;3.00;;;;;;;9.27;96.11;98342.91;5116717;28;20225;-93
2021/12/30 01:34:42;;;;;;;7.33;4.07;;;;;;;9.35;95.83;98344.22;5115940;28;20656;-93
2021/12/30 01:37:08;;;;;;;7.47;2.37;;;;;;;9.33;96.49;98343.47;5116667;28;20620;-92
2021/12/30 01:39:38;;;;;;;5.53;3.03;;;;;;;9.28;95.14;98339.34;5116353;28;20253;-94
2021/12/30 01:42:05;;;;;;;8.77;3.07;;;;;;;9.32;94.87;98341.78;5115168;28;20292;-92
2021/12/30 01:44:32;;;;;;;5.47;3.20;;;;;;;9.27;94.63;98340.31;5115713;28;20202;-91
2021/12/30 01:46:58;;;;;;;3.20;1.97;;;;;;;9.35;93.99;98342.47;5115807;28;20179;-93
2021/12/30 01:49:24;;;;;;;8.53;2.83;;;;;;;9.22;94.13;98347.56;5115654;28;20644;-93
2021/12/30 01:51:51;;;;;;;7.43;2.97;;;;;;;9.26;94.79;98349.06;5116613;28;20187;-94
2021/12/30 01:54:17;;;;;;;4.30;2.40;;;;;;;9.29;94.04;98348.03;5116313;28;20171;-92
2021/12/30 01:56:44;;;;;;;5.53;2.43;;;;;;;9.10;95.32;98345.69;5115822;28;20268;-95
2021/12/30 01:59:11;;;;;;;4.90;2.33;;;;;;;9.43;93.72;98345.47;5115971;28;20245;-94
2021/12/30 02:01:36;;;;;;;7.03;2.70;;;;;;;9.17;93.20;98341.75;5116605;28;20199;-93
2021/12/30 02:04:02;;;;;;;6.07;2.57;;;;;;;9.05;94.15;98339.88;5116272;28;20524;-93
2021/12/30 02:06:27;;;;;;;5.93;2.20;;;;;;;9.31;92.79;98342.72;5115716;28;20197;-94
2021/12/30 02:08:54;;;;;;;5.30;2.67;;;;;;;9.41;92.31;98352.53;5116493;28;20422;-94
2021/12/30 02:11:21;;;;;;;3.67;2.07;;;;;;;9.52;91.94;98349.25;5115121;28;20168;-93
2021/12/30 02:13:51;;;;;;;4.80;1.77;;;;;;;9.64;90.38;98359.81;5115460;28;20189;-93
2021/12/30 02:16:20;;;;;;;5.87;2.20;;;;;;;9.49;90.57;98360.75;5115290;28;20272;-92
2021/12/30 02:18:46;;;;;;;5.43;1.80;;;;;;;9.38;90.97;98351.88;5115367;28;20180;-93
2021/12/30 02:21:11;;;;;;;1.43;0.93;;;;;;;9.12;92.77;98359.50;5116000;27;20209;-93
2021/12/30 02:23:38;;;;;;;3.10;1.23;;;;;;;9.25;92.20;98362.22;5115154;28;20191;-93
2021/12/30 02:26:07;;;;;;;6.33;1.87;;;;;;;9.33;91.65;98360.00;5115222;28;20862;-95
2021/12/30 02:28:36;;;;;;;3.67;1.93;;;;;;;9.22;91.79;98352.78;5114577;28;20183;-93
2021/12/30 02:31:06;;;;;;;2.47;1.20;;;;;;;9.15;91.73;98367.16;5114702;28;20184;-92
2021/12/30 02:33:32;;;;;;;6.17;1.47;;;;;;;9.12;92.64;98367.34;5115622;28;20192;-92
2021/12/30 02:35:58;;;;;;;2.53;1.10;;;;;;;9.28;92.13;98372.50;5115843;28;20250;-93
2021/12/30 02:38:24;;;;;;;3.43;1.30;;;;;;;9.05;93.15;98371.25;5115721;28;20186;-93
2021/12/30 02:40:54;;;;;;;3.90;0.97;;;;;;;9.01;92.58;98369.75;5114615;28;20236;-93
2021/12/30 02:43:22;;;;;;;0.87;0.70;;;;;;;9.05;93.03;98376.47;5114719;28;20229;-93
2021/12/30 02:45:48;;;;;;;2.53;1.10;;;;;;;9.17;92.13;98369.72;5115458;28;20175;-93
2021/12/30 02:48:19;;;;;;;4.27;1.00;;;;;;;9.32;91.25;98375.78;5114321;28;20407;-93
2021/12/30 02:50:46;;;;;;;2.23;0.90;;;;;;;9.20;92.04;98379.94;5115433;28;20172;-92
2021/12/30 02:53:13;;;;;;;3.57;1.43;;;;;;;9.17;92.28;98390.63;5115327;28;20172;-93
2021/12/30 02:55:39;;;;;;;3.10;0.93;;;;;;;9.30;91.50;98381.13;5114295;28;20249;-93
2021/12/30 02:58:05;;;;;;;3.10;1.13;;;;;;;9.27;91.44;98387.38;5114200;28;20219;-93
2021/12/30 03:00:31;;;;;;;2.80;1.43;;;;;;;9.43;90.84;98391.69;5115350;28;20174;-93
2021/12/30 03:02:57;;;;;;;1.07;0.57;;;;;;;9.34;90.33;98392.22;5113731;28;20211;-93
2021/12/30 03:05:24;;;;;;;2.40;1.17;;;;;;;9.27;91.16;98395.22;5114266;28;20677;-93
2021/12/30 03:07:51;;;;;;;3.17;1.33;;;;;;;9.22;91.43;98393.81;5115038;28;20189;-94
2021/12/30 03:10:20;;;;;;;2.23;0.90;;;;;;;9.27;91.09;98399.59;5115131;27;20175;-94
2021/12/30 03:12:52;;;;;;;2.03;0.90;;;;;;;9.27;90.84;98402.22;5114133;28;20185;-94
2021/12/30 03:15:18;;;;;;;1.60;0.87;;;;;;;9.24;90.75;98405.84;5115607;28;20156;-93
2021/12/30 03:17:43;;;;;;;1.23;0.70;;;;;;;9.22;90.99;98394.63;5114876;28;20546;-93
2021/12/30 03:20:09;;;;;;;1.57;0.63;;;;;;;9.36;90.72;98392.97;5113752;28;20190;-93
2021/12/30 03:22:37;;;;;;;1.40;0.70;;;;;;;9.36;90.42;98392.97;5113846;28;20204;-94
2021/12/30 03:25:04;;;;;;;1.07;0.50;;;;;;;9.40;89.93;98399.72;5114656;28;20183;-94
2021/12/30 03:27:30;;;;;;;0.90;0.60;;;;;;;9.38;88.86;98399.78;5113963;28;20176;-91
2021/12/30 03:29:55;;;;;;;1.23;0.73;;;;;;;9.10;89.87;98403.19;5114666;28;20186;-94
2021/12/30 03:32:21;;;;;;;0.57;0.43;;;;;;;9.30;89.55;98409.88;5114572;28;20189;-93
2021/12/30 03:34:46;;;;;;;1.13;0.43;;;;;;;9.30;88.80;98415.13;5113859;28;20544;-92
2021/12/30 03:37:12;;;;;;;0.83;0.60;;;;;;;9.10;89.26;98415.41;5113841;28;20184;-94
2021/12/30 03:39:38;;;;;;;0.70;0.40;;;;;;;9.20;88.64;98420.03;5113703;28;20619;-92
2021/12/30 03:42:04;;;;;;;0.33;0.30;;;;;;;8.85;89.35;98431.69;5114184;28;20199;-93
2021/12/30 03:44:29;;;;;;;0.20;0.20;;;;;;;8.66;90.54;98425.78;5114593;28;20175;-93
2021/12/30 03:46:55;;;;;;;0.40;0.27;;;;;;;8.64;90.26;98425.06;5113666;28;20183;-94
2021/12/30 03:49:21;;;;;;;0.93;0.30;;;;;;;8.59;89.64;98432.31;5113842;28;20186;-94
2021/12/30 03:51:46;;;;;;;0.47;0.40;;;;;;;8.38;90.20;98436.94;5112919;28;20553;-93
2021/12/30 03:54:12;;;;;;;0.10;0.10;;;;;;;8.25;91.25;98442.88;5113952;28;20622;-93
2021/12/30 03:56:37;;;;;;;0.40;0.30;;;;;;;8.25;91.07;98445.50;5114284;28;20180;-93
2021/12/30 03:59:04;;;;;;;0.17;0.17;;;;;;;8.35;90.92;98446.69;5114299;28;20195;-92
2021/12/30 04:01:29;;;;;;;0.67;0.30;;;;;;;8.48;90.04;98456.41;5113190;28;20195;-93
2021/12/30 04:03:55;;;;;;;0.40;0.23;;;;;;;8.55;89.84;98459.50;5113152;28;20182;-92
2021/12/30 04:06:21;;;;;;;0.13;0.13;;;;;;;8.45;89.83;98455.72;5114041;28;20171;-93
2021/12/30 04:08:48;;;;;;;0.20;0.20;;;;;;;8.34;90.28;98465.91;5113055;28;20180;-93
2021/12/30 04:11:14;;;;;;;0.37;0.30;;;;;;;8.35;89.88;98473.66;5113906;28;20178;-93
2021/12/30 04:13:39;;;;;;;0.20;0.20;;;;;;;8.33;91.09;98482.50;5113672;28;20196;-93
2021/12/30 04:16:05;;;;;;;0.47;0.47;;;;;;;8.37;90.31;98491.84;5112998;28;20190;-92
2021/12/30 04:18:31;;;;;;;0.40;0.40;;;;;;;8.36;90.15;98491.00;5114030;28;20279;-91
2021/12/30 04:20:57;;;;;;;1.20;0.60;;;;;;;8.38;89.64;98489.16;5114010;28;20263;-90
2021/12/30 04:23:22;;;;;;;1.07;0.53;;;;;;;8.29;89.92;98499.25;5112766;28;20184;-90
2021/12/30 04:25:48;;;;;;;0.20;0.20;;;;;;;8.30;90.08;98500.94;5113985;28;20171;-90
2021/12/30 04:28:14;;;;;;;0.50;0.50;;;;;;;8.24;90.16;98504.69;5112524;28;20185;-91
2021/12/30 04:30:39;;;;;;;0.60;0.33;;;;;;;8.16;91.28;98509.47;5113318;28;20275;-89
2021/12/30 04:33:05;;;;;;;0.40;0.20;;;;;;;8.13;90.73;98504.41;5114385;28;20187;-89
2021/12/30 04:35:32;;;;;;;0.43;0.33;;;;;;;8.36;90.39;98522.31;5113860;28;20203;-91
2021/12/30 04:37:57;;;;;;;0.93;0.90;;;;;;;8.36;89.90;98522.31;5113526;28;20178;-90
2021/12/30 04:40:23;;;;;;;0.13;0.13;;;;;;;8.39;89.30;98524.78;5112646;28;20181;-90
2021/12/30 04:42:48;;;;;;;0.20;0.20;;;;;;;8.31;89.28;98523.50;5113906;28;20192;-89
2021/12/30 04:45:15;;;;;;;0.83;0.40;;;;;;;8.01;89.89;98534.63;5113135;28;20226;-89
2021/12/30 04:47:41;;;;;;;0.20;0.20;;;;;;;7.96;91.53;98541.00;5113651;28;20179;-90
2021/12/30 04:50:09;;;;;;;4.30;0.30;;;;;;;7.92;91.56;98542.91;5112130;28;20172;-90
2021/12/30 04:52:35;;;;;;;0.27;0.27;;;;;;;7.81;91.60;98547.81;5112466;28;20168;-91
2021/12/30 04:55:00;;;;;;;0.20;0.17;;;;;;;7.68;91.06;98553.75;5110685;28;20176;-90
2021/12/30 04:57:26;;;;;;;0.67;0.40;;;;;;;7.62;92.03;98561.88;5107841;28;20187;-91
2021/12/30 04:59:51;;;;;;;0.47;0.23;;;;;;;7.73;91.67;98565.63;5111391;28;20249;-90
2021/12/30 05:02:17;;;;;;;0.20;0.20;;;;;;;7.96;90.07;98570.53;5112879;28;20184;-91
2021/12/30 05:04:42;;;;;;;0.50;0.30;;;;;;;7.95;89.73;98574.06;5112314;28;20276;-90
2021/12/30 05:07:08;;;;;;;0.20;0.20;;;;;;;8.07;89.96;98576.97;5113219;28;20283;-90
2021/12/30 05:09:35;;;;;;;0.30;0.23;;;;;;;8.22;88.81;98582.25;5107213;28;20734;-91
2021/12/30 05:12:03;;;;;;;0.40;0.30;;;;;;;8.09;88.62;98583.81;5103850;28;20281;-90
2021/12/30 05:14:30;;;;;;;0.30;0.20;;;;;;;8.03;90.12;98591.94;5113191;28;20183;-91
2021/12/30 05:17:02;;;;;;;0.20;0.20;;;;;;;7.94;90.49;98592.38;5112708;28;20645;-89
2021/12/30 05:19:30;;;;;;;1.87;0.27;;;;;;;8.09;90.19;98596.00;5109905;28;20612;-91
2021/12/30 05:21:58;;;;;;;0.27;0.27;;;;;;;8.14;89.86;98604.44;5112072;28;20286;-91
2021/12/30 05:24:24;;;;;;;0.50;0.30;;;;;;;8.15;89.43;98612.19;5112891;28;20180;-90
2021/12/30 05:26:50;;;;;;;0.20;0.20;;;;;;;8.22;89.74;98612.72;5113132;28;20184;-90
2021/12/30 05:29:15;;;;;;;0.43;0.30;;;;;;;8.36;89.04;98616.31;5114663;28;20262;-91
2021/12/30 05:31:41;;;;;;;0.20;0.20;;;;;;;8.29;88.98;98619.34;5115853;28;20176;-91
2021/12/30 05:34:08;;;;;;;1.13;0.30;;;;;;;8.38;88.13;98617.13;5116530;28;20203;-90
2021/12/30 05:36:34;;;;;;;2.63;0.27;;;;;;;8.40;87.87;98619.63;5110080;28;20262;-90
2021/12/30 05:39:01;;;;;;;0.30;0.20;;;;;;;8.28;88.75;98621.09;5116419;28;20621;-89
2021/12/30 05:41:29;;;;;;;0.20;0.20;;;;;;;8.25;88.75;98633.47;5116339;28;20290;-89
2021/12/30 05:43:55;;;;;;;0.20;0.20;;;;;;;8.18;89.46;98634.66;5115111;28;20179;-89
2021/12/30 05:46:21;;;;;;;1.67;0.40;;;;;;;8.16;89.10;98644.34;5114604;28;20252;-89
2021/12/30 05:48:48;;;;;;;1.60;0.40;;;;;;;8.27;89.54;98645.53;5114559;27;20180;-89
2021/12/30 05:51:15;;;;;;;0.70;0.57;;;;;;;8.13;89.18;98645.34;5116256;28;20180;-89
2021/12/30 05:53:42;;;;;;;0.30;0.30;;;;;;;8.27;89.48;98647.31;5115798;28;20190;-89
2021/12/30 05:56:09;;;;;;;0.20;0.20;;;;;;;8.23;88.69;98657.00;5114566;28;20175;-89
2021/12/30 05:58:36;;;;;;;0.20;0.20;;;;;;;8.27;88.85;98669.03;5115959;28;20199;-90
2021/12/30 06:01:02;;;;;;;0.20;0.20;;;;;;;8.36;88.52;98668.56;5116133;28;20203;-90
2021/12/30 06:03:29;;;;;;;0.63;0.37;;;;;;;8.39;88.13;98670.16;5115220;28;20200;-91
2021/12/30 06:05:56;;;;;;;0.80;0.43;;;;;;;8.43;87.94;98675.16;5116226;27;20270;-90
2021/12/30 06:08:21;;;;;;;4.77;0.40;;;;;;;8.35;87.90;98681.69;5115113;28;20270;-90
2021/12/30 06:10:48;;;;;;;0.80;0.40;;;;;;;8.31;88.24;98685.38;5115995;28;20610;-89
2021/12/30 06:13:13;;;;;;;0.40;0.30;;;;;;;8.36;87.55;98699.06;5115561;28;20638;-90
2021/12/30 06:15:40;;;;;;;0.63;0.30;;;;;;;8.39;88.08;98701.50;5114902;28;20202;-90
2021/12/30 06:18:07;;;;;;;1.50;0.40;;;;;;;8.38;87.64;98702.44;5114702;28;20237;-90
2021/12/30 06:20:34;;;;;;;0.40;0.30;;;;;;;8.21;88.37;98711.06;5114640;28;20330;-92
2021/12/30 06:23:00;;;;;;;0.27;0.20;;;;;;;8.21;87.82;98721.50;5114363;28;20200;-91
2021/12/30 06:25:27;;;;;;;0.20;0.20;;;;;;;8.37;87.88;98719.88;5114474;28;20183;-91
2021/12/30 06:27:54;;;;;;;0.97;0.47;;;;;;;8.25;88.12;98728.28;5114330;28;20179;-91
2021/12/30 06:30:20;;;;;;;0.70;0.40;;;;;;;8.18;88.01;98731.25;5115220;28;20184;-90
2021/12/30 06:32:46;;;;;;;0.20;0.20;;;;;;;8.20;87.57;98732.88;5115174;28;20184;-90
2021/12/30 06:35:11;;;;;;;0.23;0.23;;;;;;;8.01;87.94;98738.19;5115502;28;20244;-89
2021/12/30 06:37:40;;;;;;;0.87;0.30;;;;;;;7.92;88.75;98743.81;5114899;28;20266;-89
2021/12/30 06:40:12;;;;;;;0.20;0.20;;;;;;;7.71;89.82;98747.44;5115062;28;20198;-89
2021/12/30 06:42:41;;;;;;;0.30;0.20;;;;;;;7.76;89.47;98753.28;5111382;28;20188;-89
2021/12/30 06:45:08;;;;;;;0.83;0.37;;;;;;;7.70;90.02;98760.56;5105222;28;20187;-91
2021/12/30 06:47:35;;;;;;;0.20;0.20;;;;;;;7.89;89.99;98763.97;5108891;28;20275;-90
2021/12/30 06:50:03;;;;;;;0.20;0.20;;;;;;;7.86;89.90;98767.59;5109591;28;20240;-90
2021/12/30 06:52:30;;;;;;;0.50;0.50;;;;;;;7.82;89.87;98780.84;5113324;28;20206;-91
2021/12/30 06:54:57;;;;;;;0.30;0.20;;;;;;;7.83;88.90;98779.94;5115063;28;20193;-90
2021/12/30 06:57:24;;;;;;;1.33;0.47;;;;;;;7.50;90.83;98789.31;5114900;28;20626;-90
2021/12/30 06:59:51;;;;;;;0.33;0.30;;;;;;;7.70;89.73;98787.50;5115065;28;20180;-91
2021/12/30 07:02:17;;;;;;;0.40;0.30;;;;;;;7.74;89.51;98789.03;5114313;28;20196;-91
2021/12/30 07:04:44;;;;;;;0.47;0.30;;;;;;;7.62;89.71;98794.84;5114492;28;20180;-91
2021/12/30 07:07:11;;;;;;;0.70;0.47;;;;;;;7.64;89.81;98802.59;5113327;28;20183;-91
2021/12/30 07:09:38;;;;;;;0.43;0.37;;;;;;;7.68;89.77;98806.75;5113747;28;20276;-91
2021/12/30 07:12:05;;;;;;;1.13;0.43;;;;;;;7.70;89.54;98807.53;5113797;28;20175;-92
2021/12/30 07:14:32;;;;;;;0.30;0.30;;;;;;;7.68;88.66;98818.00;5114235;28;20183;-90
2021/12/30 07:16:59;;;;;;;0.63;0.30;;;;;;;7.59;89.75;98818.44;5113021;28;20210;-91
2021/12/30 07:19:25;;;;;;;0.80;0.37;;;;;;;7.65;89.22;98825.16;5113871;28;20304;-90
2021/12/30 07:21:52;;;;;;;0.60;0.30;;;;;;;7.53;90.03;98831.75;5114028;28;20290;-91
2021/12/30 07:24:23;;;;;;;0.20;0.20;;;;;;;7.62;89.57;98838.34;5113742;28;20660;-91
2021/12/30 07:26:51;;;;;;;0.70;0.30;;;;;;;7.69;88.92;98840.59;5113263;28;20183;-92
2021/12/30 07:29:18;;;;;;;0.30;0.20;;;;;;;7.66;88.92;98843.34;5112995;28;20183;-89
2021/12/30 07:31:44;;;;;;;0.20;0.20;;;;;;;7.71;89.10;98840.50;5113306;28;20260;-90
2021/12/30 07:34:10;;;;;;;0.80;0.50;;;;;;;7.77;88.54;98848.06;5114153;28;20219;-92
2021/12/30 07:36:37;;;;;;;5.73;0.33;;;;;;;7.61;89.39;98850.53;5113927;28;20188;-91
2021/12/30 07:39:04;;;;;;;0.63;0.53;;;;;;;7.61;88.72;98842.69;5113236;28;20544;-92
2021/12/30 07:41:31;;;;;;;2.07;0.70;;;;;;;7.47;88.95;98862.50;5113224;28;20498;-89
2021/12/30 07:43:56;;;;;;;8.80;2.07;;;;;;;7.61;89.47;98862.72;5114607;28;20183;-92
2021/12/30 07:46:22;;;;;;;5.43;1.40;;;;;;;7.44;89.24;98864.31;5114170;28;20236;-92
2021/12/30 07:48:49;;;;;;;1.23;0.80;;;;;;;7.42;89.69;98860.06;5112999;28;20592;-91
2021/12/30 07:51:16;;;;;;;6.07;1.83;;;;;;;7.66;89.80;98863.34;5114334;28;20167;-91
2021/12/30 07:53:41;;;;;;;2.10;1.23;;;;;;;7.69;89.61;98865.81;5112873;28;20544;-92
2021/12/30 07:56:07;;;;;;;1.67;1.20;;;;;;;7.82;89.07;98866.97;5113645;28;20175;-90
2021/12/30 07:58:33;;;;;;;0.27;0.27;;;;;;;7.65;88.98;98872.94;5114048;28;20270;-90
2021/12/30 08:01:00;;;;;;;2.83;0.63;;;;;;;7.65;89.48;98885.16;5113828;28;20215;-91
2021/12/30 08:03:27;;;;;;;0.90;0.33;;;;;;;7.76;89.88;98883.72;5114030;28;20176;-91
2021/12/30 08:05:56;;;;;;;0.83;0.77;;;;;;;7.59;89.18;98895.84;5113522;28;20199;-91
2021/12/30 08:08:23;;;;;;;2.27;1.33;;;;;;;7.65;89.52;98898.19;5113326;28;20180;-91
2021/12/30 08:10:50;;;;;;;0.50;0.30;;;;;;;7.78;89.52;98902.75;5109150;28;20625;-90
2021/12/30 08:13:16;;;;;;;0.80;0.37;;;;;;;7.85;89.05;98905.97;5105810;28;20293;-93
2021/12/30 08:15:44;;;;;;;0.47;0.47;;;;;;;7.91;88.71;98906.50;5101244;28;20183;-92
2021/12/30 08:18:10;;;;;;;0.10;0.10;;;;;;;7.67;88.84;98917.22;5113534;28;20180;-91
2021/12/30 08:20:36;;;;;;;1.30;0.50;;;;;;;7.72;89.12;98918.72;5112985;28;20202;-90
2021/12/30 08:23:03;;;;;;;0.30;0.30;;;;;;;7.83;89.40;98916.47;5112509;28;20233;-91
2021/12/30 08:25:30;;;;;;;0.90;0.43;;;;;;;7.75;89.47;98921.19;5112663;28;20187;-92
2021/12/30 08:27:57;;;;;;;0.63;0.43;;;;;;;7.91;89.25;98914.34;5111753;28;20279;-92
2021/12/30 08:30:24;;;;;;;0.80;0.50;;;;;;;7.69;89.71;98934.50;5108292;28;20221;-91
2021/12/30 08:32:50;;;;;;;0.83;0.57;;;;;;;7.81;89.59;98931.34;5112535;28;20258;-90
2021/12/30 08:35:17;;;;;;;0.83;0.30;;;;;;;7.91;88.90;98932.59;5112588;28;20233;-91
2021/12/30 08:37:44;;;;;;;1.77;0.50;;;;;;;8.12;88.86;98932.56;5113027;28;20266;-93
2021/12/30 08:40:13;;;;;;;0.37;0.37;;;;;;;8.19;88.22;98933.97;5112643;28;20188;-92
2021/12/30 08:42:40;;;;;;;2.07;1.00;;;;;;;8.05;88.22;98943.28;5113916;28;20339;-91
2021/12/30 08:45:08;;;;;;;0.30;0.30;;;;;;;8.26;87.45;98946.66;5112608;28;20187;-90
2021/12/30 08:47:36;;;;;;;1.43;0.80;;;;;;;8.25;87.73;98951.97;5113401;28;20172;-90
2021/12/30 08:50:06;;;;;;;0.80;0.50;;;;;;;8.33;87.16;98948.09;5082214;28;20260;-90
2021/12/30 08:52:33;;;;;;;1.70;0.80;;;;;;;8.44;86.26;98945.00;5110346;28;20181;-92
2021/12/30 08:55:00;;;;;;;0.83;0.40;;;;;;;8.34;86.62;98943.72;5113635;28;20175;-90
2021/12/30 08:57:27;;;;;;;0.53;0.43;;;;;;;8.32;86.87;98937.75;5112453;28;20544;-91
2021/12/30 08:59:53;;;;;;;0.80;0.57;;;;;;;8.47;86.69;98943.09;5113236;28;20231;-90
2021/12/30 09:02:21;;;;;;;0.97;0.50;;;;;;;8.34;87.58;98941.13;5112604;28;20203;-90
2021/12/30 09:04:47;;;;;;;0.43;0.43;;;;;;;8.29;87.21;98938.72;5114343;28;20195;-90
2021/12/30 09:07:18;;;;;;;0.57;0.40;;;;;;;8.31;87.56;98942.09;5116851;28;20187;-89
2021/12/30 09:09:46;;;;;;;0.33;0.33;;;;;;;8.22;88.60;98944.28;5117214;28;20163;-89
2021/12/30 09:12:12;;;;;;;2.90;0.70;;;;;;;8.19;88.95;98947.03;5116349;28;20180;-91
2021/12/30 09:14:39;;;;;;;0.63;0.40;;;;;;;8.45;89.50;98952.78;5116066;28;20634;-90
2021/12/30 09:17:06;;;;;;;0.77;0.60;;;;;;;8.52;87.87;98958.53;5116298;28;20180;-91
2021/12/30 09:19:33;;;;;;;1.47;0.83;;;;;;;8.44;89.12;98956.28;5116259;28;20187;-90
2021/12/30 09:21:58;;;;;;;0.83;0.50;;;;;;;8.38;89.71;98958.34;5111698;28;20195;-91
2021/12/30 09:24:24;;;;;;;1.13;0.73;;;;;;;8.43;90.26;98959.84;5108381;28;20294;-91
2021/12/30 09:26:50;;;;;;;3.07;0.70;;;;;;;8.54;90.19;98956.72;5113900;28;20200;-91
2021/12/30 09:29:16;;;;;;;1.83;0.73;;;;;;;8.64;89.96;98961.44;5108462;28;20630;-93
2021/12/30 09:31:46;;;;;;;1.83;0.40;;;;;;;8.75;89.58;98963.53;5116236;28;20637;-93
2021/12/30 09:34:12;;;;;;;2.37;0.87;;;;;;;8.92;89.46;98960.94;5116879;28;20183;-93
2021/12/30 09:36:38;;;;;;;0.80;0.50;;;;;;;8.77;89.58;98956.47;5116186;28;20175;-90
2021/12/30 09:39:07;;;;;;;1.00;0.47;;;;;;;8.85;90.93;98959.56;5115530;28;20287;-92
2021/12/30 09:41:34;;;;;;;2.30;0.83;;;;;;;9.05;90.04;98964.66;5115830;28;20202;-93
2021/12/30 09:44:00;;;;;;;1.90;0.87;;;;;;;9.23;89.84;98966.38;5115834;28;20194;-94
2021/12/30 09:46:33;;;;;;;1.33;0.80;;;;;;;9.22;89.20;98964.66;5115806;28;20263;-91
2021/12/30 09:48:59;;;;;;;1.37;0.77;;;;;;;9.17;89.26;98965.84;5110461;28;20286;-93
2021/12/30 09:51:24;;;;;;;1.40;1.07;;;;;;;9.32;89.21;98970.31;5107066;28;20259;-92
2021/12/30 09:53:53;;;;;;;2.87;1.43;;;;;;;9.46;89.17;98973.03;5115572;28;20180;-92
2021/12/30 09:56:20;;;;;;;3.83;1.80;;;;;;;9.45;89.07;98967.91;5115609;28;20316;-93
2021/12/30 09:58:46;;;;;;;1.77;1.03;;;;;;;9.49;89.12;98966.81;5115808;28;20202;-92
2021/12/30 10:01:12;;;;;;;1.73;1.20;;;;;;;9.34;90.13;98967.59;5115573;28;20199;-91
2021/12/30 10:03:38;;;;;;;2.10;1.40;;;;;;;9.37;90.46;98972.69;5115029;28;20651;-86
2021/12/30 10:06:12;;;;;;;2.60;1.27;;;;;;;9.39;90.76;98982.13;5114611;28;20183;-87
2021/12/30 10:08:43;;;;;;;2.80;1.23;;;;;;;9.44;90.58;98984.50;5114091;28;20244;-86
2021/12/30 10:11:13;;;;;;;3.90;1.13;;;;;;;9.54;90.52;98978.75;5114598;28;20248;-86
2021/12/30 10:14:00;;;;;;;2.30;1.23;;;;;;;9.73;89.81;98989.13;5114895;27;20156;-86
2021/12/30 10:16:28;;;;;;;1.37;0.87;;;;;;;9.28;90.79;98980.06;5104338;28;20204;-86
2021/12/30 10:18:56;;;;;;;2.83;1.00;;;;;;;9.30;91.12;98987.84;5114604;28;20534;-86
2021/12/30 10:21:42;;;;;;;2.10;0.93;;;;;;;9.32;91.53;98987.75;5115282;28;20196;-86
2021/12/30 10:24:12;;;;;;;3.53;0.80;;;;;;;9.42;91.23;98987.22;5104799;28;20608;-86
2021/12/30 10:26:59;;;;;;;2.87;1.20;;;;;;;9.28;91.59;98987.91;5104973;28;20197;-87
2021/12/30 10:29:26;;;;;;;4.47;1.63;;;;;;;9.34;91.15;98981.53;5113901;28;20192;-86
2021/12/30 10:31:53;;;;;;;2.83;1.20;;;;;;;9.25;91.69;98988.03;5114455;27;20180;-87
2021/12/30 10:34:20;;;;;;;1.10;0.70;;;;;;;9.32;90.65;98995.59;5114935;28;20202;-87
2021/12/30 10:36:48;;;;;;;1.83;0.90;;;;;;;8.90;92.23;98999.41;5113397;28;20175;-86
2021/12/30 10:39:16;;;;;;;3.23;1.23;;;;;;;9.04;92.22;98991.72;5111632;28;20188;-86
2021/12/30 10:41:41;;;;;;;2.23;1.43;;;;;;;9.10;91.86;98994.03;5114778;28;20205;-86
2021/12/30 10:44:08;;;;;;;3.17;1.37;;;;;;;9.32;89.99;98995.59;5113516;28;20192;-86
2021/12/30 10:46:34;;;;;;;3.10;1.50;;;;;;;9.38;89.98;98992.69;5111052;28;20254;-86
2021/12/30 10:49:08;;;;;;;2.60;1.30;;;;;;;9.21;90.26;98998.75;5113219;28;20192;-86
2021/12/30 10:51:36;;;;;;;2.40;1.43;;;;;;;8.97;91.24;99000.78;5114857;28;20160;-86
2021/12/30 10:54:21;;;;;;;2.63;1.10;;;;;;;9.20;90.20;99005.72;5114856;28;20179;-87
2021/12/30 10:56:55;;;;;;;2.00;1.40;;;;;;;9.19;89.88;99006.69;5114211;28;20172;-86
2021/12/30 10:59:25;;;;;;;3.00;1.40;;;;;;;9.27;89.81;99015.00;5114733;28;20248;-86
2021/12/30 11:01:55;;;;;;;1.40;1.23;;;;;;;9.43;88.95;99019.47;5114118;28;20275;-86
2021/12/30 11:04:21;;;;;;;2.60;1.47;;;;;;;9.35;88.96;99017.22;5114604;28;20199;-85
2021/12/30 11:06:54;;;;;;;3.07;1.13;;;;;;;9.51;88.35;99025.16;5113300;28;20637;-87
2021/12/30 11:09:21;;;;;;;1.13;0.80;;;;;;;9.40;88.05;99025.69;5114602;28;20627;-87
2021/12/30 11:11:53;;;;;;;0.97;0.70;;;;;;;9.41;88.14;99021.31;5113070;28;20188;-86
2021/12/30 11:14:25;;;;;;;3.80;1.63;;;;;;;9.59;87.76;99020.41;5113227;28;20239;-86
2021/12/30 11:16:59;;;;;;;4.20;1.10;;;;;;;9.61;87.49;99023.78;5110470;28;20217;-86
2021/12/30 11:19:27;;;;;;;1.17;0.43;;;;;;;9.56;87.80;99015.31;5108336;27;20168;-87
2021/12/30 11:21:54;;;;;;;8.47;0.97;;;;;;;9.39;88.39;99015.28;5114429;28;20191;-85
2021/12/30 11:24:20;;;;;;;1.23;0.70;;;;;;;9.54;88.29;99022.41;5113294;28;20220;-87
2021/12/30 11:26:47;;;;;;;1.40;0.93;;;;;;;9.57;88.12;99016.97;5112435;28;20183;-86
2021/12/30 11:29:12;;;;;;;1.43;0.60;;;;;;;9.43;88.31;99029.94;5113700;28;20267;-86
2021/12/30 11:31:38;;;;;;;1.00;0.77;;;;;;;9.47;88.46;99026.22;5112492;28;20258;-86
2021/12/30 11:34:05;;;;;;;0.67;0.40;;;;;;;9.29;89.37;99033.22;5113662;28;20205;-87
2021/12/30 11:36:33;;;;;;;2.33;0.77;;;;;;;9.31;90.15;99026.13;5113910;28;20176;-87
2021/12/30 11:39:02;;;;;;;1.67;0.80;;;;;;;9.19;90.03;99027.59;5112664;28;20314;-88
2021/12/30 11:41:29;;;;;;;1.30;0.93;;;;;;;9.27;90.30;99040.28;5112911;28;20214;-87